createdAt,value
2019-04-11T00:02:08.838Z,16.65
2019-04-11T00:04:38.520Z,17.12
2019-04-11T00:07:08.434Z,17.77
2019-04-11T00:09:38.766Z,18.12
2019-04-11T00:12:08.883Z,18.30
2019-04-11T00:14:40.026Z,17.40
2019-04-11T00:17:10.028Z,14.85
2019-04-11T00:19:39.908Z,13.65
2019-04-11T00:22:11.102Z,17.35
2019-04-11T00:24:40.940Z,14.40
2019-04-11T00:27:10.811Z,16.12
2019-04-11T00:29:40.746Z,12.98
2019-04-11T00:32:11.125Z,14.93
2019-04-11T00:34:42.717Z,12.73
2019-04-11T00:37:12.726Z,14.43
2019-04-11T00:39:43.645Z,15.50
2019-04-11T00:42:14.483Z,10.38
2019-04-11T00:44:45.257Z,9.90
2019-04-11T00:47:15.168Z,8.65
2019-04-11T00:49:44.979Z,8.98
2019-04-11T00:52:14.689Z,8.88
2019-04-11T00:54:44.398Z,9.83
2019-04-11T00:57:14.897Z,10.70
2019-04-11T00:59:44.738Z,10.98
2019-04-11T01:02:15.604Z,8.85
2019-04-11T01:04:45.426Z,9.93
2019-04-11T01:07:15.000Z,8.95
2019-04-11T01:09:44.710Z,10.28
2019-04-11T01:12:14.418Z,11.88
2019-04-11T01:14:44.027Z,10.15
2019-04-11T01:17:14.843Z,8.93
2019-04-11T01:19:44.766Z,10.03
2019-04-11T01:22:14.783Z,11.35
2019-04-11T01:24:44.392Z,9.30
2019-04-11T01:27:14.114Z,10.95
2019-04-11T01:29:44.052Z,9.10
2019-04-11T01:32:13.990Z,9.63
2019-04-11T01:34:44.626Z,7.28
2019-04-11T01:37:15.445Z,10.75
2019-04-11T01:39:47.391Z,10.28
2019-04-11T01:42:17.694Z,9.05
2019-04-11T01:44:47.616Z,10.48
2019-04-11T01:47:18.863Z,8.90
2019-04-11T01:49:48.473Z,10.78
2019-04-11T01:52:18.232Z,9.05
2019-04-11T01:54:48.015Z,7.67
2019-04-11T01:57:17.986Z,7.17
2019-04-11T01:59:47.948Z,7.17
2019-04-11T02:02:22.742Z,7.15
2019-04-11T02:05:00.745Z,7.47
2019-04-11T02:07:31.701Z,7.12
2019-04-11T02:10:02.389Z,9.20
2019-04-11T02:12:33.271Z,7.42
2019-04-11T02:15:03.979Z,8.83
2019-04-11T02:17:34.728Z,12.07
2019-04-11T02:20:07.019Z,6.50
2019-04-11T02:22:44.092Z,7.85
2019-04-11T02:25:24.817Z,8.80
2019-04-11T02:27:54.579Z,5.83
2019-04-11T02:30:25.614Z,5.90
2019-04-11T02:32:56.183Z,6.08
2019-04-11T02:35:26.787Z,3.35
2019-04-11T02:37:57.134Z,4.00
2019-04-11T02:40:29.954Z,7.62
2019-04-11T02:42:59.627Z,5.85
2019-04-11T02:45:42.763Z,6.08
2019-04-11T02:48:01.709Z,5.75
2019-04-11T02:50:32.227Z,4.97
2019-04-11T02:53:03.007Z,3.65
2019-04-11T02:55:33.775Z,4.30
2019-04-11T02:58:05.494Z,4.30
2019-04-11T03:00:36.037Z,3.37
2019-04-11T03:03:07.947Z,3.52
2019-04-11T03:05:39.187Z,3.77
2019-04-11T03:08:12.153Z,6.15
2019-04-11T03:10:40.973Z,4.80
2019-04-11T03:13:12.596Z,5.70
2019-04-11T03:16:00.485Z,5.10
2019-04-11T03:18:35.598Z,4.85
2019-04-11T03:20:53.162Z,6.67
2019-04-11T03:23:20.913Z,3.67
2019-04-11T03:25:49.349Z,4.10
2019-04-11T03:28:23.128Z,5.30
2019-04-11T03:31:17.248Z,9.43
2019-04-11T03:36:54.043Z,7.33
2019-04-11T03:38:51.429Z,6.95
2019-04-11T03:41:12.754Z,8.43
2019-04-11T03:43:40.936Z,6.95
2019-04-11T03:46:19.534Z,8.00
2019-04-11T03:48:44.993Z,9.68
2019-04-11T03:51:02.579Z,6.72
2019-04-11T03:53:34.311Z,6.85
2019-04-11T03:56:05.165Z,8.65
2019-04-11T03:58:34.949Z,5.12
2019-04-11T04:01:08.416Z,5.17
2019-04-11T04:03:37.274Z,4.58
2019-04-11T04:06:08.911Z,3.70
2019-04-11T04:08:39.776Z,4.78
2019-04-11T04:11:14.875Z,4.42
2019-04-11T04:13:51.830Z,5.80
2019-04-11T04:16:35.763Z,4.08
2019-04-11T04:19:01.045Z,5.20
2019-04-11T04:21:33.266Z,4.25
2019-04-11T04:24:04.180Z,4.83
2019-04-11T04:26:35.558Z,5.67
2019-04-11T04:29:05.351Z,8.75
2019-04-11T04:31:35.168Z,6.33
2019-04-11T04:34:05.080Z,5.47
2019-04-11T04:36:34.902Z,7.05
2019-04-11T04:39:06.171Z,5.25
2019-04-11T04:41:41.334Z,6.72
2019-04-11T04:44:08.632Z,6.85
2019-04-11T04:46:52.519Z,8.15
2019-04-11T04:49:11.190Z,7.10
2019-04-11T04:51:41.635Z,6.65
2019-04-11T04:54:12.104Z,7.58
2019-04-11T04:56:43.139Z,7.83
2019-04-11T04:59:14.666Z,5.85
2019-04-11T05:01:45.742Z,9.45
2019-04-11T05:04:15.829Z,7.12
2019-04-11T05:06:48.167Z,6.53
2019-04-11T05:09:17.870Z,11.30
2019-04-11T05:11:48.760Z,7.67
2019-04-11T05:14:20.840Z,8.30
2019-04-11T05:16:50.735Z,11.12
2019-04-11T05:19:21.986Z,7.17
2019-04-11T05:21:52.041Z,7.40
2019-04-11T05:24:22.816Z,6.05
2019-04-11T05:26:52.649Z,6.80
2019-04-11T05:29:22.256Z,5.37
2019-04-11T05:31:51.871Z,7.40
2019-04-11T05:34:21.472Z,5.97
2019-04-11T05:36:51.183Z,7.75
2019-04-11T05:39:20.796Z,6.42
2019-04-11T05:41:51.406Z,7.80
2019-04-11T05:44:21.138Z,6.17
2019-04-11T05:46:56.261Z,6.40
2019-04-11T05:49:36.161Z,9.65
2019-04-11T05:52:08.201Z,5.50
2019-04-11T05:54:47.947Z,8.58
2019-04-11T05:57:21.272Z,5.60
2019-04-11T05:59:50.941Z,4.72
2019-04-11T06:02:21.389Z,3.72
2019-04-11T06:04:56.176Z,4.78
2019-04-11T06:07:29.297Z,4.58
2019-04-11T06:10:07.584Z,4.45
2019-04-11T06:12:38.723Z,4.45
2019-04-11T06:15:16.027Z,3.40
2019-04-11T06:17:48.184Z,4.53
2019-04-11T06:20:25.108Z,3.00
2019-04-11T06:23:04.984Z,4.78
2019-04-11T06:25:39.089Z,3.10
2019-04-11T06:28:09.577Z,3.98
2019-04-11T06:30:57.010Z,4.40
2019-04-11T06:33:28.844Z,4.25
2019-04-11T06:36:09.619Z,5.70
2019-04-11T06:38:47.148Z,3.42
2019-04-11T06:41:22.076Z,5.17
2019-04-11T06:43:53.392Z,4.00
2019-04-11T06:46:31.321Z,6.75
2019-04-11T06:49:02.747Z,4.03
2019-04-11T06:51:33.997Z,4.22
2019-04-11T06:54:21.151Z,5.33
2019-04-11T06:56:52.257Z,4.67
2019-04-11T06:59:26.813Z,4.08
2019-04-11T07:02:08.116Z,3.72
2019-04-11T07:04:32.037Z,3.15
2019-04-11T07:07:04.388Z,4.22
2019-04-11T07:09:39.431Z,4.45
2019-04-11T07:12:24.365Z,4.90
2019-04-11T07:14:58.420Z,4.47
2019-04-11T07:17:32.227Z,5.00
2019-04-11T07:20:09.210Z,3.30
2019-04-11T07:22:57.532Z,2.87
2019-04-11T07:25:28.975Z,4.00
2019-04-11T07:28:12.235Z,3.20
2019-04-11T07:30:58.635Z,3.20
2019-04-11T07:33:33.213Z,2.62
2019-04-11T07:36:21.065Z,3.67
2019-04-11T07:38:58.880Z,3.95
2019-04-11T07:41:39.911Z,3.98
2019-04-11T07:44:15.625Z,3.15
2019-04-11T07:47:00.248Z,3.75
2019-04-11T07:49:47.160Z,3.80
2019-04-11T07:52:18.546Z,2.95
2019-04-11T07:54:48.153Z,3.62
2019-04-11T07:57:32.199Z,3.45
2019-04-11T08:00:03.761Z,4.62
2019-04-11T08:02:50.772Z,4.00
2019-04-11T08:05:22.019Z,4.72
2019-04-11T08:07:59.445Z,2.92
2019-04-11T08:10:43.735Z,3.02
2019-04-11T08:13:31.315Z,2.95
2019-04-11T08:16:20.967Z,4.42
2019-04-11T08:19:10.544Z,3.60
2019-04-11T08:22:00.853Z,3.20
2019-04-11T08:24:48.985Z,3.22
2019-04-11T08:27:27.383Z,5.03
2019-04-11T08:29:58.739Z,3.22
2019-04-11T08:32:46.430Z,3.65
2019-04-11T08:35:34.915Z,3.37
2019-04-11T08:38:16.178Z,3.20
2019-04-11T08:40:59.532Z,3.42
2019-04-11T08:43:31.207Z,3.15
2019-04-11T08:46:02.691Z,2.87
2019-04-11T08:48:37.215Z,2.87
2019-04-11T08:51:11.493Z,4.15
2019-04-11T08:53:46.895Z,2.92
2019-04-11T08:56:18.999Z,2.92
2019-04-11T08:59:13.346Z,3.30
2019-04-11T09:01:44.305Z,3.92
2019-04-11T09:04:16.797Z,2.67
2019-04-11T09:06:47.171Z,3.83
2019-04-11T09:09:24.672Z,3.70
2019-04-11T09:11:56.281Z,3.30
2019-04-11T09:14:46.869Z,3.30
2019-04-11T09:17:19.382Z,2.70
2019-04-11T09:19:55.014Z,5.42
2019-04-11T09:22:44.935Z,2.75
2019-04-11T09:25:16.334Z,2.80
2019-04-11T09:28:04.687Z,3.27
2019-04-11T09:30:43.048Z,2.22
2019-04-11T09:33:31.032Z,2.80
2019-04-11T09:36:02.373Z,2.83
2019-04-11T09:38:34.687Z,2.92
2019-04-11T09:41:06.199Z,2.75
2019-04-11T09:43:37.548Z,2.75
2019-04-11T09:46:08.796Z,2.45
2019-04-11T09:48:46.331Z,2.58
2019-04-11T09:51:34.225Z,2.65
2019-04-11T09:54:05.692Z,2.25
2019-04-11T09:56:53.983Z,2.85
2019-04-11T09:59:25.383Z,3.10
2019-04-11T10:02:14.439Z,3.12
2019-04-11T10:04:45.891Z,3.17
2019-04-11T10:07:19.787Z,2.45
2019-04-11T10:10:00.190Z,2.90
2019-04-11T10:12:40.710Z,1.60
2019-04-11T10:15:11.426Z,1.82
2019-04-11T10:17:59.052Z,6.33
2019-04-11T10:20:44.599Z,3.05
2019-04-11T10:23:18.859Z,1.45
2019-04-11T10:25:50.130Z,1.95
2019-04-11T10:28:21.724Z,1.92
2019-04-11T10:31:02.173Z,2.80
2019-04-11T10:33:39.432Z,1.90
2019-04-11T10:36:23.142Z,2.05
2019-04-11T10:38:57.388Z,1.57
2019-04-11T10:41:31.194Z,2.50
2019-04-11T10:44:01.431Z,1.90
2019-04-11T10:46:49.516Z,2.05
2019-04-11T10:49:23.654Z,4.75
2019-04-11T10:52:00.758Z,2.20
2019-04-11T10:54:36.642Z,2.62
2019-04-11T10:57:11.938Z,2.52
2019-04-11T10:59:49.108Z,1.92
2019-04-11T11:02:37.634Z,2.60
2019-04-11T11:05:10.668Z,2.10
2019-04-11T11:07:42.502Z,2.60
2019-04-11T11:10:13.979Z,2.72
2019-04-11T11:12:57.397Z,2.67
2019-04-11T11:15:28.769Z,2.50
2019-04-11T11:18:39.803Z,2.75
2019-04-11T11:20:53.913Z,2.15
2019-04-11T11:23:29.164Z,2.52
2019-04-11T11:26:04.870Z,2.05
2019-04-11T11:31:22.385Z,2.50
2019-04-11T11:33:52.142Z,1.60
2019-04-11T11:36:39.685Z,2.15
2019-04-11T11:39:17.407Z,2.08
2019-04-11T11:42:06.095Z,2.02
2019-04-11T11:44:37.574Z,2.87
2019-04-11T11:47:17.627Z,3.05
2019-04-11T11:49:55.629Z,2.20
2019-04-11T11:52:37.633Z,2.33
2019-04-11T11:55:10.702Z,2.37
2019-04-11T11:57:42.670Z,3.25
2019-04-11T12:00:15.839Z,3.08
2019-04-11T12:02:51.226Z,3.95
2019-04-11T12:05:22.249Z,2.55
2019-04-11T12:07:54.534Z,3.62
2019-04-11T12:10:32.880Z,2.30
2019-04-11T12:13:14.683Z,2.42
2019-04-11T12:15:53.302Z,3.00
2019-04-11T12:18:46.548Z,2.75
2019-04-11T12:21:23.783Z,2.35
2019-04-11T12:24:00.763Z,2.87
2019-04-11T12:26:27.918Z,2.72
2019-04-11T12:29:01.642Z,3.02
2019-04-11T12:31:35.575Z,3.45
2019-04-11T12:34:06.064Z,3.02
2019-04-11T12:36:43.074Z,3.65
2019-04-11T12:39:28.746Z,3.17
2019-04-11T12:41:59.579Z,3.02
2019-04-11T12:44:30.873Z,2.20
2019-04-11T12:47:07.589Z,3.35
2019-04-11T12:49:37.725Z,2.75
2019-04-11T12:52:25.250Z,5.03
2019-04-11T12:54:56.499Z,2.42
2019-04-11T12:57:44.126Z,2.62
2019-04-11T13:00:18.650Z,3.52
2019-04-11T13:02:59.009Z,2.52
2019-04-11T13:05:30.345Z,2.50
2019-04-11T13:08:07.428Z,4.30
2019-04-11T13:10:38.276Z,3.30
2019-04-11T13:13:18.229Z,2.60
2019-04-11T13:15:58.688Z,2.65
2019-04-11T13:18:38.845Z,2.17
2019-04-11T13:21:14.289Z,3.30
2019-04-11T13:23:57.518Z,2.60
2019-04-11T13:26:37.571Z,2.58
2019-04-11T13:29:26.941Z,3.27
2019-04-11T13:32:07.097Z,2.55
2019-04-11T13:34:38.444Z,2.65
2019-04-11T13:37:12.352Z,2.65
2019-04-11T13:39:43.190Z,3.37
2019-04-11T13:42:32.665Z,2.40
2019-04-11T13:45:02.272Z,2.25
2019-04-11T13:47:42.326Z,4.00
2019-04-11T13:50:16.780Z,3.42
2019-04-11T13:52:53.827Z,2.27
2019-04-11T13:55:23.436Z,2.83
2019-04-11T13:58:00.313Z,3.77
2019-04-11T14:00:43.849Z,2.75
2019-04-11T14:03:17.657Z,3.40
2019-04-11T14:05:49.195Z,2.70
2019-04-11T14:08:36.738Z,5.53
2019-04-11T14:11:10.839Z,2.05
2019-04-11T14:13:42.305Z,2.72
2019-04-11T14:16:16.211Z,2.58
2019-04-11T14:18:50.322Z,2.83
2019-04-11T14:21:21.879Z,2.92
2019-04-11T14:24:11.674Z,2.80
2019-04-11T14:26:46.080Z,2.80
2019-04-11T14:29:23.059Z,2.37
2019-04-11T14:31:54.661Z,2.85
2019-04-11T14:34:34.870Z,2.80
2019-04-11T14:37:12.161Z,2.47
2019-04-11T14:39:43.408Z,2.92
2019-04-11T14:42:17.354Z,2.37
2019-04-11T14:44:48.257Z,1.67
2019-04-11T14:47:38.972Z,2.75
2019-04-11T14:50:11.152Z,2.27
2019-04-11T14:52:51.281Z,2.83
2019-04-11T14:55:22.934Z,2.00
2019-04-11T14:58:12.202Z,2.30
2019-04-11T15:00:43.010Z,2.15
2019-04-11T15:03:17.254Z,4.10
2019-04-11T15:05:54.449Z,3.90
2019-04-11T15:08:31.419Z,2.55
2019-04-11T15:11:14.346Z,1.87
2019-04-11T15:13:45.815Z,6.50
2019-04-11T15:16:24.514Z,2.92
2019-04-11T15:18:55.760Z,2.85
2019-04-11T15:21:27.007Z,3.50
2019-04-11T15:23:56.614Z,3.27
2019-04-11T15:26:33.503Z,4.47
2019-04-11T15:29:05.354Z,2.95
2019-04-11T15:31:39.535Z,2.80
2019-04-11T15:34:12.134Z,4.05
2019-04-11T15:37:00.106Z,8.00
2019-04-11T15:39:47.203Z,7.12
2019-04-11T15:42:18.449Z,10.58
2019-04-11T15:45:05.981Z,7.37
2019-04-11T15:47:37.231Z,6.30
2019-04-11T15:50:25.498Z,8.53
2019-04-11T15:52:56.919Z,9.00
2019-04-11T15:55:28.268Z,4.67
2019-04-11T15:57:58.286Z,3.45
2019-04-11T16:00:44.589Z,2.62
2019-04-11T16:03:14.401Z,3.30
2019-04-11T16:06:02.862Z,2.52
2019-04-11T16:08:38.714Z,3.47
2019-04-11T16:11:22.236Z,2.62
2019-04-11T16:13:56.196Z,3.20
2019-04-11T16:16:27.497Z,3.12
2019-04-11T16:18:58.844Z,3.35
2019-04-11T16:21:40.007Z,3.20
2019-04-11T16:24:14.238Z,3.52
2019-04-11T16:27:01.671Z,3.15
2019-04-11T16:29:38.773Z,3.85
2019-04-11T16:32:08.358Z,4.85
2019-04-11T16:34:48.277Z,3.08
2019-04-11T16:37:11.564Z,2.80
2019-04-11T16:39:50.378Z,2.70
2019-04-11T16:42:17.026Z,2.72
2019-04-11T16:44:54.815Z,3.37
2019-04-11T16:47:38.974Z,3.08
2019-04-11T16:50:08.684Z,3.47
2019-04-11T16:52:39.077Z,3.75
2019-04-11T16:55:10.680Z,5.10
2019-04-11T16:57:43.876Z,5.53
2019-04-11T17:00:14.171Z,4.92
2019-04-11T17:02:46.758Z,4.23
2019-04-11T17:05:16.675Z,5.00
2019-04-11T17:08:03.986Z,7.10
2019-04-11T17:10:51.938Z,3.80
2019-04-11T17:13:23.794Z,4.47
2019-04-11T17:15:52.891Z,3.75
2019-04-11T17:18:23.626Z,3.05
2019-04-11T17:20:53.234Z,3.62
2019-04-11T17:23:22.841Z,4.37
2019-04-11T17:25:52.989Z,3.33
2019-04-11T17:28:23.754Z,3.80
2019-04-11T17:30:55.779Z,3.45
2019-04-11T17:33:27.781Z,4.95
2019-04-11T17:35:56.104Z,4.25
2019-04-11T17:38:27.046Z,4.80
2019-04-11T17:40:56.737Z,3.92
2019-04-11T17:43:26.363Z,3.72
2019-04-11T17:45:57.705Z,4.45
2019-04-11T17:48:28.544Z,5.75
2019-04-11T17:50:58.154Z,5.17
2019-04-11T17:53:29.401Z,4.65
2019-04-11T17:55:59.111Z,5.50
2019-04-11T17:58:28.727Z,4.70
2019-04-11T18:01:05.234Z,5.22
2019-04-11T18:03:32.761Z,3.80
2019-04-11T18:06:02.354Z,4.25
2019-04-11T18:08:31.960Z,5.47
2019-04-11T18:11:02.800Z,4.12
2019-04-11T18:13:33.533Z,5.25
2019-04-11T18:16:03.146Z,6.17
2019-04-11T18:18:35.077Z,4.85
2019-04-11T18:21:06.973Z,5.67
2019-04-11T18:23:36.008Z,5.30
2019-04-11T18:26:07.095Z,5.62
2019-04-11T18:28:37.836Z,4.35
2019-04-11T18:31:07.548Z,3.37
2019-04-11T18:33:37.159Z,3.60
2019-04-11T18:36:08.773Z,3.12
2019-04-11T18:38:38.422Z,6.40
2019-04-11T18:41:08.027Z,3.90
2019-04-11T18:43:38.863Z,4.70
2019-04-11T18:46:09.905Z,4.50
2019-04-11T18:48:39.513Z,3.52
2019-04-11T18:51:09.225Z,4.70
2019-04-11T18:53:40.063Z,3.10
2019-04-11T18:56:09.668Z,4.70
2019-04-11T18:58:40.183Z,4.28
2019-04-11T19:01:13.492Z,3.40
2019-04-11T19:03:43.205Z,4.20
2019-04-11T19:06:13.707Z,4.47
2019-04-11T19:08:45.173Z,4.08
2019-04-11T19:11:16.358Z,3.50
2019-04-11T19:13:47.883Z,4.42
2019-04-11T19:16:17.490Z,4.37
2019-04-11T19:18:47.826Z,5.42
2019-04-11T19:21:21.097Z,4.45
2019-04-11T19:23:51.315Z,5.10
2019-04-11T19:26:22.883Z,6.37
2019-04-11T19:28:54.970Z,5.65
2019-04-11T19:31:27.167Z,10.90
2019-04-11T19:33:55.085Z,5.90
2019-04-11T19:36:24.795Z,4.83
2019-04-11T19:38:54.404Z,3.98
2019-04-11T19:41:24.012Z,3.33
2019-04-11T19:43:53.721Z,4.28
2019-04-11T19:46:23.737Z,3.22
2019-04-11T19:48:57.084Z,4.60
2019-04-11T19:51:28.747Z,3.85
2019-04-11T19:53:56.252Z,3.75
2019-04-11T19:56:27.502Z,5.28
2019-04-11T19:58:58.811Z,3.98
2019-04-11T20:01:28.451Z,3.52
2019-04-11T20:03:59.352Z,3.10
2019-04-11T20:06:31.663Z,7.35
2019-04-11T20:09:01.372Z,5.95
2019-04-11T20:11:34.154Z,5.58
2019-04-11T20:14:03.864Z,3.55
2019-04-11T20:16:41.511Z,4.83
2019-04-11T20:19:09.184Z,4.87
2019-04-11T20:21:40.470Z,4.55
2019-04-11T20:24:14.183Z,5.35
2019-04-11T20:26:43.584Z,5.80
2019-04-11T20:29:13.290Z,6.50
2019-04-11T20:31:42.896Z,5.45
2019-04-11T20:34:13.804Z,5.33
2019-04-11T20:36:43.429Z,6.00
2019-04-11T20:39:15.237Z,6.42
2019-04-11T20:41:44.399Z,6.12
2019-04-11T20:44:14.010Z,6.10
2019-04-11T20:46:44.741Z,5.65
2019-04-11T20:49:14.273Z,8.10
2019-04-11T20:51:43.859Z,6.60
2019-04-11T20:54:13.461Z,6.37
2019-04-11T20:56:43.073Z,5.72
2019-04-11T20:59:12.677Z,6.70
2019-04-11T21:01:42.293Z,5.72
2019-04-11T21:04:11.892Z,6.08
2019-04-11T21:06:41.500Z,7.22
2019-04-11T21:09:12.258Z,7.72
2019-04-11T21:11:41.946Z,6.75
2019-04-11T21:14:11.554Z,8.85
2019-04-11T21:16:41.164Z,7.58
2019-04-11T21:19:10.768Z,7.78
2019-04-11T21:21:40.378Z,6.92
2019-04-11T21:24:09.984Z,7.67
2019-04-11T21:26:39.593Z,6.12
2019-04-11T21:29:09.204Z,6.72
2019-04-11T21:31:38.911Z,6.80
2019-04-11T21:34:08.521Z,6.95
2019-04-11T21:36:38.330Z,8.10
2019-04-11T21:39:31.604Z,9.45
2019-04-11T21:42:01.303Z,7.78
2019-04-11T21:44:30.912Z,8.65
2019-04-11T21:47:00.622Z,8.83
2019-04-11T21:49:30.233Z,7.87
2019-04-11T21:51:59.836Z,7.95
2019-04-11T21:54:30.470Z,9.20
2019-04-11T21:57:00.083Z,9.88
2019-04-11T21:59:29.787Z,8.88
2019-04-11T22:01:59.498Z,6.22
2019-04-11T22:04:31.119Z,6.62
2019-04-11T22:07:00.895Z,8.73
2019-04-11T22:09:33.051Z,7.22
2019-04-11T22:12:07.644Z,7.15
2019-04-11T22:14:35.220Z,7.90
2019-04-11T22:17:04.932Z,9.08
2019-04-11T22:19:34.536Z,6.40
2019-04-11T22:22:04.234Z,6.53
2019-04-11T22:24:34.261Z,6.45
2019-04-11T22:27:05.406Z,7.53
2019-04-11T22:29:34.934Z,7.47
2019-04-11T22:32:04.727Z,7.95
2019-04-11T22:34:35.954Z,6.25
2019-04-11T22:37:05.989Z,8.48
2019-04-11T22:39:35.596Z,7.03
2019-04-11T22:42:05.393Z,8.03
2019-04-11T22:44:35.518Z,6.70
2019-04-11T22:47:08.041Z,6.35
2019-04-11T22:49:39.313Z,6.55
2019-04-11T22:52:11.460Z,6.03
2019-04-11T22:54:41.762Z,4.97
2019-04-11T22:57:12.212Z,6.90
2019-04-11T22:59:45.048Z,6.35
2019-04-11T23:02:18.334Z,6.90
2019-04-11T23:04:47.959Z,5.35
2019-04-11T23:07:18.395Z,6.40
2019-04-11T23:09:49.044Z,5.90
2019-04-11T23:12:19.238Z,6.53
2019-04-11T23:14:48.846Z,6.28
2019-04-11T23:17:18.452Z,6.60
2019-04-11T23:19:48.982Z,7.60
2019-04-11T23:22:18.590Z,6.72
2019-04-11T23:24:48.198Z,7.85
2019-04-11T23:27:17.807Z,6.28
2019-04-11T23:29:47.730Z,6.70
2019-04-11T23:32:18.871Z,8.28
2019-04-11T23:34:49.837Z,6.78
2019-04-11T23:37:21.126Z,7.05
2019-04-11T23:39:51.731Z,6.40
2019-04-11T23:42:21.495Z,7.95
2019-04-11T23:44:51.244Z,6.05
2019-04-11T23:47:23.095Z,6.10
2019-04-11T23:49:55.094Z,5.92
2019-04-11T23:52:26.425Z,7.10
2019-04-11T23:54:54.756Z,4.60
2019-04-11T23:57:24.364Z,4.95
2019-04-11T23:59:53.975Z,4.75
